createdAt,value
2019-04-25T00:02:26.024Z,31.57
2019-04-25T00:04:57.868Z,31.07
2019-04-25T00:07:29.610Z,42.83
2019-04-25T00:10:01.679Z,30.70
2019-04-25T00:12:34.901Z,37.43
2019-04-25T00:15:08.751Z,36.17
2019-04-25T00:17:41.941Z,35.17
2019-04-25T00:20:14.664Z,42.67
2019-04-25T00:22:49.277Z,42.13
2019-04-25T00:25:32.802Z,33.50
2019-04-25T00:28:05.918Z,36.03
2019-04-25T00:30:38.100Z,37.13
2019-04-25T00:33:11.546Z,30.87
2019-04-25T00:35:44.654Z,39.00
2019-04-25T00:38:16.761Z,39.17
2019-04-25T00:40:48.628Z,30.67
2019-04-25T00:43:21.479Z,34.23
2019-04-25T00:45:53.282Z,34.47
2019-04-25T00:48:25.031Z,42.63
2019-04-25T00:50:56.870Z,35.97
2019-04-25T00:53:28.608Z,32.20
2019-04-25T00:56:01.492Z,37.50
2019-04-25T00:58:37.858Z,34.90
2019-04-25T01:01:09.465Z,36.63
2019-04-25T01:03:43.316Z,32.50
2019-04-25T01:06:15.010Z,50.93
2019-04-25T01:08:47.713Z,43.03
2019-04-25T01:11:21.526Z,49.80
2019-04-25T01:13:54.431Z,39.90
2019-04-25T01:16:27.370Z,62.73
2019-04-25T01:18:59.099Z,35.73
2019-04-25T01:21:30.909Z,38.53
2019-04-25T01:24:04.299Z,35.53
2019-04-25T01:26:36.141Z,29.43
2019-04-25T01:29:08.949Z,39.23
2019-04-25T01:31:40.659Z,41.10
2019-04-25T01:34:14.340Z,35.23
2019-04-25T01:36:55.032Z,44.93
2019-04-25T01:39:44.297Z,40.97
2019-04-25T01:42:17.575Z,33.67
2019-04-25T01:44:51.624Z,35.20
2019-04-25T01:47:24.515Z,36.23
2019-04-25T01:49:56.680Z,41.17
2019-04-25T01:52:28.773Z,38.20
2019-04-25T01:55:00.516Z,48.03
2019-04-25T01:57:33.723Z,38.87
2019-04-25T02:00:09.881Z,42.57
2019-04-25T02:02:43.506Z,42.93
2019-04-25T02:05:16.052Z,44.53
2019-04-25T02:07:47.595Z,41.50
2019-04-25T02:10:20.107Z,38.20
2019-04-25T02:12:55.179Z,34.50
2019-04-25T02:15:28.461Z,39.43
2019-04-25T02:18:00.379Z,43.10
2019-04-25T02:20:33.944Z,44.63
2019-04-25T02:23:06.192Z,45.73
2019-04-25T02:25:38.235Z,42.83
2019-04-25T02:28:09.997Z,43.60
2019-04-25T02:30:41.738Z,39.60
2019-04-25T02:33:14.239Z,41.37
2019-04-25T02:35:46.912Z,46.17
2019-04-25T02:38:18.995Z,38.27
2019-04-25T02:40:50.907Z,42.77
2019-04-25T02:43:23.940Z,50.30
2019-04-25T02:46:15.218Z,46.73
2019-04-25T02:49:09.560Z,39.43
2019-04-25T02:51:42.282Z,37.73
2019-04-25T02:54:14.163Z,37.60
2019-04-25T02:56:46.755Z,34.90
2019-04-25T02:59:18.765Z,46.23
2019-04-25T03:01:50.507Z,48.83
2019-04-25T03:04:24.075Z,34.33
2019-04-25T03:06:57.152Z,43.63
2019-04-25T03:09:28.821Z,41.70
2019-04-25T03:12:01.767Z,32.30
2019-04-25T03:14:35.200Z,40.57
2019-04-25T03:17:09.838Z,39.93
2019-04-25T03:19:54.336Z,40.30
2019-04-25T03:22:30.445Z,39.00
2019-04-25T03:25:04.514Z,41.80
2019-04-25T03:27:35.442Z,38.63
2019-04-25T03:30:13.654Z,41.33
2019-04-25T03:32:45.134Z,43.60
2019-04-25T03:35:16.545Z,41.33
2019-04-25T03:37:48.106Z,36.90
2019-04-25T03:40:19.910Z,38.67
2019-04-25T03:42:51.463Z,38.07
2019-04-25T03:45:23.723Z,37.50
2019-04-25T03:47:55.638Z,42.00
2019-04-25T03:50:27.443Z,34.33
2019-04-25T03:52:59.255Z,35.63
2019-04-25T03:55:35.562Z,35.33
2019-04-25T03:58:09.404Z,34.93
2019-04-25T04:00:39.684Z,39.00
2019-04-25T04:03:11.508Z,40.50
2019-04-25T04:05:44.171Z,34.63
2019-04-25T04:08:15.927Z,37.47
2019-04-25T04:10:47.626Z,38.07
2019-04-25T04:13:19.382Z,40.50
2019-04-25T04:15:51.114Z,35.93
2019-04-25T04:18:40.566Z,43.77
2019-04-25T04:21:20.307Z,39.53
2019-04-25T04:23:54.216Z,37.53
2019-04-25T04:26:27.051Z,41.03
2019-04-25T04:28:58.796Z,47.37
2019-04-25T04:31:33.473Z,48.90
2019-04-25T04:34:05.365Z,47.67
2019-04-25T04:36:37.098Z,37.53
2019-04-25T04:39:09.970Z,46.13
2019-04-25T04:41:43.327Z,47.03
2019-04-25T04:44:16.539Z,48.17
2019-04-25T04:46:48.189Z,45.03
2019-04-25T04:49:21.933Z,43.17
2019-04-25T04:51:54.136Z,42.70
2019-04-25T04:54:25.896Z,44.47
2019-04-25T04:56:57.645Z,42.77
2019-04-25T04:59:29.396Z,45.30
2019-04-25T05:02:03.342Z,44.10
2019-04-25T05:04:53.529Z,42.93
2019-04-25T05:07:39.189Z,32.97
2019-04-25T05:10:11.371Z,38.37
2019-04-25T05:12:43.764Z,31.30
2019-04-25T05:15:16.923Z,35.87
2019-04-25T05:17:49.535Z,31.50
2019-04-25T05:20:22.269Z,28.67
2019-04-25T05:22:55.036Z,33.73
2019-04-25T05:25:26.931Z,30.57
2019-04-25T05:28:02.893Z,22.40
2019-04-25T05:30:40.092Z,32.70
2019-04-25T05:33:11.795Z,29.63
2019-04-25T05:35:44.050Z,30.13
2019-04-25T05:38:17.684Z,28.80
2019-04-25T05:40:54.078Z,28.67
2019-04-25T05:43:27.509Z,28.17
2019-04-25T05:45:59.960Z,30.23
2019-04-25T05:48:31.806Z,27.80
2019-04-25T05:51:03.963Z,28.03
2019-04-25T05:53:36.213Z,34.80
2019-04-25T05:56:07.954Z,27.40
2019-04-25T05:58:39.801Z,26.73
2019-04-25T06:01:13.315Z,30.67
2019-04-25T06:03:44.799Z,25.53
2019-04-25T06:06:17.479Z,35.80
2019-04-25T06:09:04.135Z,24.80
2019-04-25T06:11:43.805Z,36.17
2019-04-25T06:14:18.257Z,28.77
2019-04-25T06:16:53.536Z,32.30
2019-04-25T06:19:43.512Z,27.33
2019-04-25T06:22:24.216Z,21.60
2019-04-25T06:24:57.673Z,25.57
2019-04-25T06:27:35.084Z,65.47
2019-04-25T06:30:10.705Z,27.97
2019-04-25T06:32:43.744Z,21.40
2019-04-25T06:35:15.702Z,20.97
2019-04-25T06:37:47.489Z,26.37
2019-04-25T06:40:20.561Z,19.63
2019-04-25T06:42:54.940Z,25.67
2019-04-25T06:45:34.449Z,24.90
2019-04-25T06:48:08.373Z,23.37
2019-04-25T06:50:40.009Z,32.27
2019-04-25T06:53:13.542Z,22.97
2019-04-25T06:55:45.110Z,23.87
2019-04-25T06:58:16.857Z,25.23
2019-04-25T07:00:57.983Z,25.43
2019-04-25T07:03:22.807Z,36.07
2019-04-25T07:05:54.864Z,21.70
2019-04-25T07:08:26.925Z,27.40
2019-04-25T07:10:59.651Z,27.83
2019-04-25T07:13:34.180Z,25.07
2019-04-25T07:16:04.751Z,24.90
2019-04-25T07:18:37.386Z,20.13
2019-04-25T07:21:09.091Z,23.07
2019-04-25T07:23:41.240Z,22.63
2019-04-25T07:26:16.362Z,28.77
2019-04-25T07:29:05.880Z,28.57
2019-04-25T07:31:44.268Z,30.10
2019-04-25T07:34:17.810Z,27.97
2019-04-25T07:36:49.506Z,26.73
2019-04-25T07:39:23.536Z,21.83
2019-04-25T07:41:55.246Z,25.37
2019-04-25T07:44:38.137Z,21.53
2019-04-25T07:47:01.487Z,26.33
2019-04-25T07:49:34.562Z,22.60
2019-04-25T07:52:08.213Z,24.63
2019-04-25T07:54:40.739Z,23.63
2019-04-25T07:57:13.538Z,28.50
2019-04-25T07:59:45.749Z,26.27
2019-04-25T08:02:17.869Z,21.70
2019-04-25T08:04:50.847Z,29.07
2019-04-25T08:07:23.740Z,64.10
2019-04-25T08:09:55.852Z,21.97
2019-04-25T08:12:28.359Z,26.93
2019-04-25T08:15:04.928Z,17.50
2019-04-25T08:17:45.589Z,22.93
2019-04-25T08:20:18.178Z,28.37
2019-04-25T08:22:56.559Z,30.27
2019-04-25T08:25:24.853Z,24.87
2019-04-25T08:27:56.632Z,22.60
2019-04-25T08:30:29.755Z,25.27
2019-04-25T08:33:01.781Z,24.57
2019-04-25T08:35:35.482Z,24.67
2019-04-25T08:38:08.259Z,26.50
2019-04-25T08:40:40.437Z,39.37
2019-04-25T08:43:12.380Z,19.43
2019-04-25T08:45:44.324Z,29.10
2019-04-25T08:48:16.177Z,25.17
2019-04-25T08:51:01.517Z,24.83
2019-04-25T08:53:41.003Z,25.63
2019-04-25T08:56:15.021Z,19.30
2019-04-25T08:58:46.745Z,34.43
2019-04-25T09:01:18.367Z,25.10
2019-04-25T09:03:57.555Z,28.10
2019-04-25T09:06:29.231Z,27.47
2019-04-25T09:09:01.369Z,28.87
2019-04-25T09:11:37.966Z,34.97
2019-04-25T09:14:08.522Z,24.07
2019-04-25T09:16:40.278Z,22.60
2019-04-25T09:19:12.026Z,27.93
2019-04-25T09:21:48.125Z,27.80
2019-04-25T09:24:17.423Z,22.70
2019-04-25T09:26:50.097Z,27.73
2019-04-25T09:29:23.360Z,31.83
2019-04-25T09:31:55.699Z,29.40
2019-04-25T09:34:27.452Z,25.50
2019-04-25T09:36:59.204Z,31.37
2019-04-25T09:39:38.999Z,22.23
2019-04-25T09:42:10.833Z,27.33
2019-04-25T09:44:53.703Z,24.97
2019-04-25T09:47:25.784Z,43.00
2019-04-25T09:49:58.101Z,31.80
2019-04-25T09:52:29.762Z,24.83
2019-04-25T09:55:06.055Z,29.33
2019-04-25T09:57:43.445Z,26.03
2019-04-25T10:00:34.469Z,27.60
2019-04-25T10:03:06.914Z,28.97
2019-04-25T10:05:38.792Z,27.07
2019-04-25T10:08:10.713Z,29.30
2019-04-25T10:10:43.055Z,24.33
2019-04-25T10:13:14.812Z,56.63
2019-04-25T10:16:05.072Z,24.73
2019-04-25T10:18:39.165Z,27.30
2019-04-25T10:21:14.291Z,25.03
2019-04-25T10:23:48.261Z,32.57
2019-04-25T10:26:22.932Z,27.63
2019-04-25T10:28:54.570Z,23.70
2019-04-25T10:31:26.363Z,26.80
2019-04-25T10:33:58.101Z,25.83
2019-04-25T10:36:30.016Z,38.10
2019-04-25T10:39:07.898Z,25.07
2019-04-25T10:41:36.739Z,24.43
2019-04-25T10:44:09.715Z,25.37
2019-04-25T10:46:41.789Z,19.20
2019-04-25T10:49:14.520Z,22.63
2019-04-25T10:51:46.556Z,23.83
2019-04-25T10:54:18.319Z,27.90
2019-04-25T10:56:50.091Z,23.63
2019-04-25T10:59:23.477Z,25.70
2019-04-25T11:01:55.443Z,27.87
2019-04-25T11:04:28.831Z,21.47
2019-04-25T11:07:00.494Z,24.17
2019-04-25T11:09:34.050Z,30.00
2019-04-25T11:12:08.702Z,26.03
2019-04-25T11:14:40.930Z,17.67
2019-04-25T11:17:15.300Z,29.80
2019-04-25T11:19:46.826Z,32.40
2019-04-25T11:22:18.745Z,23.10
2019-04-25T11:24:50.745Z,27.77
2019-04-25T11:27:27.401Z,24.50
2019-04-25T11:30:09.219Z,30.10
2019-04-25T11:32:33.907Z,22.20
2019-04-25T11:35:07.798Z,30.73
2019-04-25T11:37:39.346Z,24.77
2019-04-25T11:40:16.650Z,19.23
2019-04-25T11:42:48.388Z,27.27
2019-04-25T11:45:20.585Z,35.30
2019-04-25T11:47:53.833Z,28.47
2019-04-25T11:50:26.591Z,21.90
2019-04-25T11:52:58.854Z,28.90
2019-04-25T11:55:30.676Z,41.03
2019-04-25T11:58:03.704Z,19.00
2019-04-25T12:00:36.155Z,30.40
2019-04-25T12:03:08.497Z,23.70
2019-04-25T12:05:40.160Z,24.20
2019-04-25T12:08:13.446Z,42.00
2019-04-25T12:10:46.571Z,23.57
2019-04-25T12:13:18.766Z,24.77
2019-04-25T12:15:50.525Z,25.47
2019-04-25T12:18:22.265Z,26.33
2019-04-25T12:20:55.429Z,20.50
2019-04-25T12:23:27.362Z,20.53
2019-04-25T12:25:59.104Z,20.40
2019-04-25T12:28:31.720Z,25.70
2019-04-25T12:31:03.572Z,28.03
2019-04-25T12:33:35.322Z,26.37
2019-04-25T12:36:07.330Z,23.07
2019-04-25T12:38:39.077Z,27.17
2019-04-25T12:41:10.824Z,20.57
2019-04-25T12:43:45.643Z,24.80
2019-04-25T12:46:22.343Z,27.53
2019-04-25T12:48:54.121Z,22.87
2019-04-25T12:51:25.859Z,37.83
2019-04-25T12:53:58.029Z,25.53
2019-04-25T12:56:30.018Z,20.03
2019-04-25T12:59:01.798Z,34.40
2019-04-25T13:01:33.543Z,20.43
2019-04-25T13:04:06.354Z,28.17
2019-04-25T13:06:37.901Z,20.90
2019-04-25T13:09:10.867Z,19.53
2019-04-25T13:11:43.456Z,66.07
2019-04-25T13:14:17.519Z,20.83
2019-04-25T13:16:49.603Z,21.77
2019-04-25T13:19:24.649Z,17.67
2019-04-25T13:21:54.617Z,22.43
2019-04-25T13:24:26.472Z,23.70
2019-04-25T13:27:03.605Z,20.27
2019-04-25T13:29:53.842Z,27.33
2019-04-25T13:32:25.455Z,21.20
2019-04-25T13:34:58.782Z,17.43
2019-04-25T13:37:30.552Z,24.47
2019-04-25T13:40:02.207Z,25.27
2019-04-25T13:42:34.227Z,21.07
2019-04-25T13:45:09.105Z,24.63
2019-04-25T13:47:42.380Z,25.27
2019-04-25T13:50:15.477Z,18.73
2019-04-25T13:52:47.161Z,20.40
2019-04-25T13:55:18.924Z,17.40
2019-04-25T13:57:50.677Z,15.53
2019-04-25T14:00:26.056Z,18.47
2019-04-25T14:02:58.573Z,19.73
2019-04-25T14:05:30.581Z,20.73
2019-04-25T14:08:02.242Z,19.53
2019-04-25T14:10:34.579Z,18.60
2019-04-25T14:13:07.189Z,16.53
2019-04-25T14:15:43.119Z,15.57
2019-04-25T14:18:20.017Z,16.43
2019-04-25T14:20:53.488Z,17.40
2019-04-25T14:23:25.761Z,17.37
2019-04-25T14:25:57.481Z,15.43
2019-04-25T14:28:31.557Z,22.03
2019-04-25T14:31:03.329Z,17.47
2019-04-25T14:33:35.457Z,31.43
2019-04-25T14:36:07.291Z,21.37
2019-04-25T14:38:39.048Z,15.43
2019-04-25T14:41:10.788Z,15.13
2019-04-25T14:43:42.534Z,16.57
2019-04-25T14:46:14.292Z,19.33
2019-04-25T14:48:46.064Z,22.00
2019-04-25T14:51:17.810Z,17.57
2019-04-25T14:53:50.034Z,14.83
2019-04-25T14:56:23.710Z,16.73
2019-04-25T14:58:55.542Z,17.37
2019-04-25T15:01:28.094Z,20.43
2019-04-25T15:04:00.082Z,19.50
2019-04-25T15:06:32.047Z,16.80
2019-04-25T15:09:05.250Z,16.73
2019-04-25T15:11:37.765Z,16.10
2019-04-25T15:14:09.525Z,19.93
2019-04-25T15:16:41.260Z,13.70
2019-04-25T15:19:13.087Z,17.40
2019-04-25T15:21:44.726Z,20.53
2019-04-25T15:24:16.571Z,14.87
2019-04-25T15:26:48.327Z,19.33
2019-04-25T15:29:20.070Z,17.70
2019-04-25T15:31:56.157Z,12.77
2019-04-25T15:34:28.072Z,22.23
2019-04-25T15:37:07.427Z,17.77
2019-04-25T15:39:42.038Z,16.73
2019-04-25T15:42:15.343Z,16.70
2019-04-25T15:44:58.368Z,21.27
2019-04-25T15:47:31.900Z,25.27
2019-04-25T15:50:06.123Z,21.17
2019-04-25T15:52:39.134Z,22.33
2019-04-25T15:55:10.896Z,18.47
2019-04-25T15:57:45.724Z,24.10
2019-04-25T16:00:20.949Z,16.07
2019-04-25T16:02:52.816Z,19.20
2019-04-25T16:05:26.451Z,21.20
2019-04-25T16:07:58.632Z,20.07
2019-04-25T16:10:30.511Z,21.50
2019-04-25T16:13:02.472Z,23.03
2019-04-25T16:15:34.120Z,18.93
2019-04-25T16:18:07.585Z,21.97
2019-04-25T16:20:57.521Z,21.57
2019-04-25T16:23:30.252Z,32.93
2019-04-25T16:26:02.326Z,25.43
2019-04-25T16:28:34.123Z,24.23
2019-04-25T16:31:12.362Z,21.97
2019-04-25T16:33:49.993Z,20.77
2019-04-25T16:36:24.004Z,23.73
2019-04-25T16:38:58.714Z,21.40
2019-04-25T16:41:31.989Z,22.50
2019-04-25T16:44:14.846Z,24.23
2019-04-25T16:46:46.503Z,30.13
2019-04-25T16:49:23.238Z,23.53
2019-04-25T16:51:57.600Z,24.63
2019-04-25T16:54:30.401Z,20.10
2019-04-25T16:57:08.500Z,28.87
2019-04-25T16:59:45.043Z,33.67
2019-04-25T17:02:32.500Z,29.80
2019-04-25T17:04:55.678Z,18.50
2019-04-25T17:07:30.326Z,19.93
2019-04-25T17:10:03.516Z,23.80
2019-04-25T17:12:38.463Z,33.50
2019-04-25T17:15:20.032Z,58.90
2019-04-25T17:18:09.861Z,198.03
2019-04-25T17:20:58.792Z,52.33
2019-04-25T17:23:34.430Z,38.47
2019-04-25T17:26:15.172Z,23.80
2019-04-25T17:28:56.504Z,19.97
2019-04-25T17:31:39.664Z,18.53
2019-04-25T17:34:25.525Z,21.40
2019-04-25T17:37:00.336Z,23.07
2019-04-25T17:39:42.227Z,23.67
2019-04-25T17:42:18.693Z,30.53
2019-04-25T17:44:57.722Z,22.20
2019-04-25T17:47:30.657Z,21.43
2019-04-25T17:50:06.578Z,22.17
2019-04-25T17:52:38.346Z,23.10
2019-04-25T17:55:10.469Z,17.13
2019-04-25T17:57:43.629Z,29.43
2019-04-25T18:00:22.785Z,33.00
2019-04-25T18:02:59.149Z,19.77
2019-04-25T18:05:34.158Z,25.03
2019-04-25T18:08:15.007Z,20.47
2019-04-25T18:10:54.554Z,18.37
2019-04-25T18:13:31.215Z,23.67
2019-04-25T18:16:24.668Z,17.47
2019-04-25T18:19:14.697Z,24.70
2019-04-25T18:21:49.043Z,52.87
2019-04-25T18:24:29.868Z,44.03
2019-04-25T18:27:22.909Z,24.20
2019-04-25T18:29:54.476Z,28.70
2019-04-25T18:32:27.908Z,21.60
2019-04-25T18:35:01.495Z,24.77
2019-04-25T18:37:37.166Z,32.07
2019-04-25T18:40:21.043Z,23.60
2019-04-25T18:43:05.269Z,29.13
2019-04-25T18:45:40.282Z,32.40
2019-04-25T18:48:12.217Z,25.10
2019-04-25T18:50:44.985Z,27.60
2019-04-25T18:53:34.721Z,26.37
2019-04-25T18:56:09.386Z,21.47
2019-04-25T18:58:43.986Z,33.77
2019-04-25T19:01:18.689Z,80.20
2019-04-25T19:03:54.922Z,67.63
2019-04-25T19:06:27.760Z,63.23
2019-04-25T19:08:59.536Z,85.60
2019-04-25T19:11:31.763Z,28.07
2019-04-25T19:14:03.554Z,34.80
2019-04-25T19:16:35.309Z,28.17
2019-04-25T19:19:07.399Z,36.23
2019-04-25T19:21:40.227Z,39.53
2019-04-25T19:24:12.414Z,50.20
2019-04-25T19:26:44.780Z,43.57
2019-04-25T19:29:18.652Z,43.67
2019-04-25T19:31:53.297Z,72.87
2019-04-25T19:34:30.596Z,64.17
2019-04-25T19:37:04.649Z,64.03
2019-04-25T19:39:40.558Z,54.90
2019-04-25T19:42:19.634Z,63.27
2019-04-25T19:44:51.432Z,37.43
2019-04-25T19:47:24.538Z,45.57
2019-04-25T19:49:58.246Z,45.27
2019-04-25T19:52:30.031Z,45.17
2019-04-25T19:55:01.890Z,53.33
2019-04-25T19:57:33.842Z,62.53
2019-04-25T20:00:07.776Z,54.73
2019-04-25T20:02:47.439Z,51.47
2019-04-25T20:05:20.926Z,61.93
2019-04-25T20:07:58.510Z,63.43
2019-04-25T20:10:44.155Z,57.97
2019-04-25T20:13:17.238Z,59.30
2019-04-25T20:15:49.568Z,58.53
2019-04-25T20:18:21.425Z,60.10
2019-04-25T20:20:54.089Z,52.37
2019-04-25T20:23:25.832Z,53.17
2019-04-25T20:25:57.653Z,67.67
2019-04-25T20:28:29.315Z,60.13
2019-04-25T20:31:01.356Z,72.03
2019-04-25T20:33:33.208Z,72.07
2019-04-25T20:36:17.023Z,70.50
2019-04-25T20:38:38.843Z,85.57
2019-04-25T20:41:14.057Z,74.40
2019-04-25T20:43:48.891Z,61.90
2019-04-25T20:46:20.560Z,66.07
2019-04-25T20:48:52.350Z,74.77
2019-04-25T20:51:26.837Z,62.47
2019-04-25T20:53:59.815Z,70.47
2019-04-25T20:56:31.629Z,65.40
2019-04-25T20:59:04.381Z,70.57
2019-04-25T21:01:36.217Z,74.23
2019-04-25T21:04:13.227Z,73.93
2019-04-25T21:06:43.291Z,71.27
2019-04-25T21:09:16.084Z,67.77
2019-04-25T21:11:53.319Z,62.40
2019-04-25T21:14:36.003Z,64.83
2019-04-25T21:17:23.258Z,64.57
2019-04-25T21:19:58.439Z,61.20
2019-04-25T21:22:36.736Z,72.83
2019-04-25T21:25:13.240Z,68.10
2019-04-25T21:27:44.858Z,67.27
2019-04-25T21:30:16.707Z,71.17
2019-04-25T21:32:50.534Z,66.90
2019-04-25T21:35:23.448Z,70.90
2019-04-25T21:37:57.463Z,70.07
2019-04-25T21:40:31.194Z,54.13
2019-04-25T21:43:10.714Z,74.77
2019-04-25T21:45:42.841Z,80.97
2019-04-25T21:48:14.965Z,76.03
2019-04-25T21:50:47.291Z,72.77
2019-04-25T21:53:19.036Z,73.50
2019-04-25T21:55:51.162Z,66.80
2019-04-25T21:58:23.480Z,75.27
2019-04-25T22:00:56.544Z,72.73
2019-04-25T22:03:31.730Z,65.47
2019-04-25T22:06:04.991Z,69.47
2019-04-25T22:08:37.045Z,70.73
2019-04-25T22:11:11.883Z,62.60
2019-04-25T22:13:44.514Z,68.87
2019-04-25T22:16:16.303Z,76.43
2019-04-25T22:18:48.922Z,67.97
2019-04-25T22:21:23.319Z,66.27
2019-04-25T22:24:05.975Z,63.13
2019-04-25T22:26:28.806Z,56.43
2019-04-25T22:29:01.282Z,62.77
2019-04-25T22:31:37.280Z,60.13
2019-04-25T22:34:15.294Z,66.20
2019-04-25T22:36:47.513Z,57.07
2019-04-25T22:39:19.284Z,61.77
2019-04-25T22:41:51.465Z,66.03
2019-04-25T22:44:23.554Z,57.07
2019-04-25T22:46:57.142Z,70.27
2019-04-25T22:49:28.793Z,69.57
2019-04-25T22:52:01.648Z,54.57
2019-04-25T22:54:33.847Z,54.37
2019-04-25T22:57:06.331Z,59.83
2019-04-25T22:59:38.614Z,61.50
2019-04-25T23:02:14.688Z,61.57
2019-04-25T23:05:04.780Z,53.27
2019-04-25T23:07:27.366Z,63.90
2019-04-25T23:09:59.483Z,68.07
2019-04-25T23:12:31.804Z,54.70
2019-04-25T23:15:05.089Z,55.13
2019-04-25T23:17:37.507Z,49.97
2019-04-25T23:20:10.210Z,61.97
2019-04-25T23:22:41.995Z,52.77
2019-04-25T23:25:16.534Z,63.30
2019-04-25T23:27:47.951Z,51.33
2019-04-25T23:30:22.980Z,62.27
2019-04-25T23:32:54.822Z,59.20
2019-04-25T23:35:30.295Z,57.47
2019-04-25T23:38:00.201Z,49.40
2019-04-25T23:40:31.942Z,56.20
2019-04-25T23:43:05.204Z,55.00
2019-04-25T23:45:37.292Z,56.97
2019-04-25T23:48:10.289Z,56.30
2019-04-25T23:50:42.033Z,47.70
2019-04-25T23:53:14.931Z,53.60
2019-04-25T23:55:46.801Z,65.30
2019-04-25T23:58:18.540Z,53.53
